الصفحة الرئيسية
METAR-TAF:

METAR-TAF

مطار :

سان ديني, ريونيون

دائرة عرض: 20-53S, خط طول: 055-31E, ارتفاع: 21 متر

مراقبة الطقس الحالي

تاريخ ووقت الإصدار 18 دقيقة قبل الساعة 03:00UTC
ريح 6 عقدة من الجنوب الشرقي
درجة الحرارة 25°درجة مئوية
الرطوبة 79%
ضغط 1014 hPa
الرؤية 10 كم أو أكثر

METAR: FMEE 010300Z AUTO 13006KT 9999 FEW058/// BKN110/// ///TCU 25/21 Q1014 TEMPO 3000 SHRA

زمن: 07:18 (03:18 UTC)

توقعات

تاريخ ووقت الإصدار 4ساعات و 18 دقيقة قبل الساعة 23:00UTC
التوقعات صالحة من01 الساعة 00 UTC إلى 02 الساعة 06 UTC
ريح 12 عقدة من الشرق
الرؤية 10 كم أو أكثر
غيوم قليلة على ارتفاع 3000 قدم
غيوم متفرقة على ارتفاع 4500 قدم
نظرية الاحتمالات 40% :
مؤقت
من 01 الساعة 00 UTC إلى 01 الساعة 10 UTC
الرؤية: 3000 متر
غيوم قليلة على ارتفاع 1500 قدم, مزن ركامية عمودية.
زخات من المطر
أصبح
من 01 الساعة 15 UTC إلى 01 الساعة 17 UTC
ريح 8 عقدة من الجنوب/الجنوب الشرقي
مؤقت
من 01 الساعة 23 UTC إلى 02 الساعة 02 UTC
الرؤية: 4500 متر
زخات من المطر

TAF: FMEE 302300Z 0100/0206 09012KT 9999 FEW030 SCT045 PROB40 TEMPO 0100/0110 3000 SHRA FEW015TCU BECMG 0115/0117 15008KT TEMPO 0123/0202 4500 SHRA

أرصاد الطقس والتوقعات من أكثر من 4000 مطار (تقارير الطقس للمطار METAR والتنبؤ بالطقس بالمطارTAF).

المحطات المتاحة هي النقط الصفراء والحمراء على الخريطة.

حرك المؤشر فوق النقطة لمعرفة اسم المحطة.

ثم انقر لمعرفة أرصاد وتوقعات الطقس.

لتغيير الخارطة: اضغط على الأزرار الخضراء مع رمز الصليب الأسود للتكبير. على الزر الأخضر مع شرطة للتصغير، أو على الأسهم الخضراء للخرائط المجاورة.


METAR-TAF: